The Hangar Logo

METARs in Plain English
Latest METAR information for EGVN - BRIZE NORTON

EGVN 041620Z 15003KT CAVOK 22/07 Q1011 NOSIG RMK BLACKBLU BLU

In plain english is....

This is a METAR report for EGVN - BRIZE NORTON .
The report was made 29 minutes ago, at 16:20 UTC.
The wind was blowing at a speed of 3 knots (3.5 miles per hour, 1.5 metres per second) from the South/Southeast (150°).
The visibility was greater than 6.2 miles (greater than 10 kilometres).
There were no clouds below 5,000 feet (1,524 metres).
The temperature was 22°C (72°F), a dew point of 7°C (45°F) and a relative humidity of 37.9%.
The altimeter setting (airfield QNH) was 1,011 hPa (29.85 inHg).
Other remarks NOSIG RMK BLACKBLU BLU.

UK Mainland

Ireland

Channel Islands (& Isle of Man)

France

Other



Enter
Tel: 07092 887559 - Fax: 07092 183262

Content copyright © 1999-2018 TheHangar.co.uk. All rights reserved.
Please send your questions, comments, or bug reports to the Webmaster.